sensor_id;sensor_type;location;lat;lon;timestamp;P1;durP1;ratioP1;P2;durP2;ratioP2
15944;SDS011;30172;48.832;8.732;2023-11-19T00:00:19;0.83;;;0.83;;
15944;SDS011;30172;48.832;8.732;2023-11-19T00:02:45;1.70;;;1.27;;
15944;SDS011;30172;48.832;8.732;2023-11-19T00:05:12;2.77;;;1.90;;
15944;SDS011;30172;48.832;8.732;2023-11-19T00:07:37;0.63;;;0.63;;
15944;SDS011;30172;48.832;8.732;2023-11-19T00:10:09;0.73;;;0.50;;
15944;SDS011;30172;48.832;8.732;2023-11-19T00:12:42;0.40;;;0.40;;
15944;SDS011;30172;48.832;8.732;2023-11-19T00:15:09;0.30;;;0.30;;
15944;SDS011;30172;48.832;8.732;2023-11-19T00:17:36;1.00;;;0.47;;
15944;SDS011;30172;48.832;8.732;2023-11-19T00:20:03;1.00;;;0.50;;
15944;SDS011;30172;48.832;8.732;2023-11-19T00:22:31;0.30;;;0.30;;
15944;SDS011;30172;48.832;8.732;2023-11-19T00:24:56;0.67;;;0.60;;
15944;SDS011;30172;48.832;8.732;2023-11-19T00:27:21;0.30;;;0.30;;
15944;SDS011;30172;48.832;8.732;2023-11-19T00:29:47;0.30;;;0.30;;
15944;SDS011;30172;48.832;8.732;2023-11-19T00:32:12;0.77;;;0.40;;
15944;SDS011;30172;48.832;8.732;2023-11-19T00:34:37;0.50;;;0.50;;
15944;SDS011;30172;48.832;8.732;2023-11-19T00:37:03;1.30;;;0.30;;
15944;SDS011;30172;48.832;8.732;2023-11-19T00:39:29;0.20;;;0.20;;
15944;SDS011;30172;48.832;8.732;2023-11-19T00:41:54;0.30;;;0.30;;
15944;SDS011;30172;48.832;8.732;2023-11-19T00:44:19;0.47;;;0.47;;
15944;SDS011;30172;48.832;8.732;2023-11-19T00:46:44;0.20;;;0.20;;
15944;SDS011;30172;48.832;8.732;2023-11-19T00:49:10;1.13;;;0.40;;
15944;SDS011;30172;48.832;8.732;2023-11-19T00:51:36;0.30;;;0.30;;
15944;SDS011;30172;48.832;8.732;2023-11-19T00:54:02;0.40;;;0.40;;
15944;SDS011;30172;48.832;8.732;2023-11-19T00:56:28;0.60;;;0.60;;
15944;SDS011;30172;48.832;8.732;2023-11-19T00:58:53;0.40;;;0.40;;
15944;SDS011;30172;48.832;8.732;2023-11-19T01:01:19;0.50;;;0.50;;
15944;SDS011;30172;48.832;8.732;2023-11-19T01:03:44;0.30;;;0.30;;
15944;SDS011;30172;48.832;8.732;2023-11-19T01:06:10;0.20;;;0.20;;
15944;SDS011;30172;48.832;8.732;2023-11-19T01:08:35;1.23;;;0.20;;
15944;SDS011;30172;48.832;8.732;2023-11-19T01:11:01;0.50;;;0.30;;
15944;SDS011;30172;48.832;8.732;2023-11-19T01:13:27;0.20;;;0.20;;
15944;SDS011;30172;48.832;8.732;2023-11-19T01:15:52;0.20;;;0.20;;
15944;SDS011;30172;48.832;8.732;2023-11-19T01:18:17;0.30;;;0.27;;
15944;SDS011;30172;48.832;8.732;2023-11-19T01:20:43;0.43;;;0.40;;
15944;SDS011;30172;48.832;8.732;2023-11-19T01:23:08;0.30;;;0.30;;
15944;SDS011;30172;48.832;8.732;2023-11-19T01:25:33;0.20;;;0.20;;
15944;SDS011;30172;48.832;8.732;2023-11-19T01:28:00;0.60;;;0.20;;
15944;SDS011;30172;48.832;8.732;2023-11-19T01:30:27;0.20;;;0.20;;
15944;SDS011;30172;48.832;8.732;2023-11-19T01:32:52;0.20;;;0.20;;
15944;SDS011;30172;48.832;8.732;2023-11-19T01:35:18;0.20;;;0.20;;
15944;SDS011;30172;48.832;8.732;2023-11-19T01:37:44;0.20;;;0.20;;
15944;SDS011;30172;48.832;8.732;2023-11-19T01:40:09;0.30;;;0.20;;
15944;SDS011;30172;48.832;8.732;2023-11-19T01:42:40;0.30;;;0.20;;
15944;SDS011;30172;48.832;8.732;2023-11-19T01:45:06;0.20;;;0.20;;
15944;SDS011;30172;48.832;8.732;2023-11-19T01:47:33;0.43;;;0.30;;
15944;SDS011;30172;48.832;8.732;2023-11-19T01:49:58;0.13;;;0.13;;
15944;SDS011;30172;48.832;8.732;2023-11-19T01:52:24;0.30;;;0.30;;
15944;SDS011;30172;48.832;8.732;2023-11-19T01:54:50;0.20;;;0.20;;
15944;SDS011;30172;48.832;8.732;2023-11-19T01:57:17;0.63;;;0.33;;
15944;SDS011;30172;48.832;8.732;2023-11-19T01:59:43;0.20;;;0.20;;
15944;SDS011;30172;48.832;8.732;2023-11-19T02:02:08;0.30;;;0.30;;
15944;SDS011;30172;48.832;8.732;2023-11-19T02:04:34;0.67;;;0.30;;
15944;SDS011;30172;48.832;8.732;2023-11-19T02:07:00;0.33;;;0.33;;
15944;SDS011;30172;48.832;8.732;2023-11-19T02:09:25;0.30;;;0.27;;
15944;SDS011;30172;48.832;8.732;2023-11-19T02:11:52;0.43;;;0.37;;
15944;SDS011;30172;48.832;8.732;2023-11-19T02:14:18;0.37;;;0.30;;
15944;SDS011;30172;48.832;8.732;2023-11-19T02:16:45;0.20;;;0.20;;
15944;SDS011;30172;48.832;8.732;2023-11-19T02:19:10;0.47;;;0.30;;
15944;SDS011;30172;48.832;8.732;2023-11-19T02:21:36;0.50;;;0.50;;
15944;SDS011;30172;48.832;8.732;2023-11-19T02:24:05;2.30;;;0.37;;
15944;SDS011;30172;48.832;8.732;2023-11-19T02:29:12;0.20;;;0.20;;
15944;SDS011;30172;48.832;8.732;2023-11-19T02:31:38;0.30;;;0.30;;
15944;SDS011;30172;48.832;8.732;2023-11-19T02:34:03;0.20;;;0.20;;
15944;SDS011;30172;48.832;8.732;2023-11-19T02:36:29;0.33;;;0.30;;
15944;SDS011;30172;48.832;8.732;2023-11-19T02:38:54;0.20;;;0.20;;
15944;SDS011;30172;48.832;8.732;2023-11-19T02:41:20;0.30;;;0.30;;
15944;SDS011;30172;48.832;8.732;2023-11-19T02:43:45;0.20;;;0.20;;
15944;SDS011;30172;48.832;8.732;2023-11-19T02:46:11;0.30;;;0.30;;
15944;SDS011;30172;48.832;8.732;2023-11-19T02:48:37;0.30;;;0.27;;
15944;SDS011;30172;48.832;8.732;2023-11-19T02:51:02;0.30;;;0.20;;
15944;SDS011;30172;48.832;8.732;2023-11-19T02:53:31;0.20;;;0.20;;
15944;SDS011;30172;48.832;8.732;2023-11-19T02:55:57;0.20;;;0.20;;
15944;SDS011;30172;48.832;8.732;2023-11-19T02:58:36;0.30;;;0.30;;
15944;SDS011;30172;48.832;8.732;2023-11-19T03:01:02;0.20;;;0.20;;
15944;SDS011;30172;48.832;8.732;2023-11-19T03:03:37;0.20;;;0.20;;
15944;SDS011;30172;48.832;8.732;2023-11-19T03:06:06;0.53;;;0.20;;
15944;SDS011;30172;48.832;8.732;2023-11-19T03:08:34;0.30;;;0.30;;
15944;SDS011;30172;48.832;8.732;2023-11-19T03:11:00;0.20;;;0.20;;
15944;SDS011;30172;48.832;8.732;2023-11-19T03:13:26;0.43;;;0.30;;
15944;SDS011;30172;48.832;8.732;2023-11-19T03:15:51;0.10;;;0.10;;
15944;SDS011;30172;48.832;8.732;2023-11-19T03:18:18;0.20;;;0.20;;
15944;SDS011;30172;48.832;8.732;2023-11-19T03:20:44;0.20;;;0.20;;
15944;SDS011;30172;48.832;8.732;2023-11-19T03:23:11;0.20;;;0.20;;
15944;SDS011;30172;48.832;8.732;2023-11-19T03:25:37;0.20;;;0.20;;
15944;SDS011;30172;48.832;8.732;2023-11-19T03:28:02;0.50;;;0.30;;
15944;SDS011;30172;48.832;8.732;2023-11-19T03:30:28;0.20;;;0.20;;
15944;SDS011;30172;48.832;8.732;2023-11-19T03:32:54;0.20;;;0.20;;
15944;SDS011;30172;48.832;8.732;2023-11-19T03:35:20;0.20;;;0.20;;
15944;SDS011;30172;48.832;8.732;2023-11-19T03:37:45;0.20;;;0.20;;
15944;SDS011;30172;48.832;8.732;2023-11-19T03:40:11;0.27;;;0.27;;
15944;SDS011;30172;48.832;8.732;2023-11-19T03:42:37;0.30;;;0.30;;
15944;SDS011;30172;48.832;8.732;2023-11-19T03:45:02;0.20;;;0.20;;
15944;SDS011;30172;48.832;8.732;2023-11-19T03:47:31;0.27;;;0.20;;
15944;SDS011;30172;48.832;8.732;2023-11-19T03:49:56;0.20;;;0.20;;
15944;SDS011;30172;48.832;8.732;2023-11-19T03:52:21;0.47;;;0.30;;
15944;SDS011;30172;48.832;8.732;2023-11-19T03:54:47;0.20;;;0.20;;
15944;SDS011;30172;48.832;8.732;2023-11-19T03:57:12;0.33;;;0.30;;
15944;SDS011;30172;48.832;8.732;2023-11-19T03:59:38;3.60;;;0.40;;
15944;SDS011;30172;48.832;8.732;2023-11-19T04:02:04;0.30;;;0.30;;
15944;SDS011;30172;48.832;8.732;2023-11-19T04:04:29;0.20;;;0.20;;
15944;SDS011;30172;48.832;8.732;2023-11-19T04:06:55;0.67;;;0.30;;
15944;SDS011;30172;48.832;8.732;2023-11-19T04:09:20;0.30;;;0.30;;
15944;SDS011;30172;48.832;8.732;2023-11-19T04:11:46;0.33;;;0.30;;
15944;SDS011;30172;48.832;8.732;2023-11-19T04:14:12;0.50;;;0.50;;
15944;SDS011;30172;48.832;8.732;2023-11-19T04:16:38;0.43;;;0.30;;
15944;SDS011;30172;48.832;8.732;2023-11-19T04:19:03;0.87;;;0.40;;
15944;SDS011;30172;48.832;8.732;2023-11-19T04:21:29;0.37;;;0.37;;
15944;SDS011;30172;48.832;8.732;2023-11-19T04:23:54;0.27;;;0.27;;
15944;SDS011;30172;48.832;8.732;2023-11-19T04:26:19;0.47;;;0.30;;
15944;SDS011;30172;48.832;8.732;2023-11-19T04:28:45;0.37;;;0.30;;
15944;SDS011;30172;48.832;8.732;2023-11-19T04:31:10;0.30;;;0.30;;
15944;SDS011;30172;48.832;8.732;2023-11-19T04:33:35;0.30;;;0.30;;
15944;SDS011;30172;48.832;8.732;2023-11-19T04:36:01;0.57;;;0.30;;
15944;SDS011;30172;48.832;8.732;2023-11-19T04:38:27;0.30;;;0.30;;
15944;SDS011;30172;48.832;8.732;2023-11-19T04:40:52;0.23;;;0.23;;
15944;SDS011;30172;48.832;8.732;2023-11-19T04:43:18;1.80;;;0.50;;
15944;SDS011;30172;48.832;8.732;2023-11-19T04:45:44;0.40;;;0.30;;
15944;SDS011;30172;48.832;8.732;2023-11-19T04:48:09;0.30;;;0.30;;
15944;SDS011;30172;48.832;8.732;2023-11-19T04:50:35;0.40;;;0.40;;
15944;SDS011;30172;48.832;8.732;2023-11-19T04:53:00;0.60;;;0.50;;
15944;SDS011;30172;48.832;8.732;2023-11-19T04:55:25;0.90;;;0.40;;
15944;SDS011;30172;48.832;8.732;2023-11-19T04:57:53;0.77;;;0.50;;
15944;SDS011;30172;48.832;8.732;2023-11-19T05:00:19;0.30;;;0.30;;
15944;SDS011;30172;48.832;8.732;2023-11-19T05:02:46;0.57;;;0.40;;
15944;SDS011;30172;48.832;8.732;2023-11-19T05:05:11;0.60;;;0.53;;
15944;SDS011;30172;48.832;8.732;2023-11-19T05:07:37;0.40;;;0.40;;
15944;SDS011;30172;48.832;8.732;2023-11-19T05:10:03;1.03;;;0.60;;
15944;SDS011;30172;48.832;8.732;2023-11-19T05:12:29;0.57;;;0.57;;
15944;SDS011;30172;48.832;8.732;2023-11-19T05:14:54;0.70;;;0.50;;
15944;SDS011;30172;48.832;8.732;2023-11-19T05:17:20;0.50;;;0.50;;
15944;SDS011;30172;48.832;8.732;2023-11-19T05:19:45;0.40;;;0.37;;
15944;SDS011;30172;48.832;8.732;2023-11-19T05:22:11;4.40;;;0.80;;
15944;SDS011;30172;48.832;8.732;2023-11-19T05:24:37;2.00;;;0.80;;
15944;SDS011;30172;48.832;8.732;2023-11-19T05:27:04;0.83;;;0.80;;
15944;SDS011;30172;48.832;8.732;2023-11-19T05:29:29;1.63;;;0.50;;
15944;SDS011;30172;48.832;8.732;2023-11-19T05:31:55;1.73;;;0.50;;
15944;SDS011;30172;48.832;8.732;2023-11-19T05:34:20;1.50;;;0.70;;
15944;SDS011;30172;48.832;8.732;2023-11-19T05:36:46;0.60;;;0.40;;
15944;SDS011;30172;48.832;8.732;2023-11-19T05:39:11;1.80;;;0.70;;
15944;SDS011;30172;48.832;8.732;2023-11-19T05:41:36;0.90;;;0.60;;
15944;SDS011;30172;48.832;8.732;2023-11-19T05:44:02;2.67;;;0.47;;
15944;SDS011;30172;48.832;8.732;2023-11-19T05:46:27;1.23;;;0.70;;
15944;SDS011;30172;48.832;8.732;2023-11-19T05:48:53;1.73;;;0.70;;
15944;SDS011;30172;48.832;8.732;2023-11-19T05:51:18;0.40;;;0.40;;
15944;SDS011;30172;48.832;8.732;2023-11-19T05:53:44;1.23;;;0.70;;
15944;SDS011;30172;48.832;8.732;2023-11-19T05:56:10;0.80;;;0.50;;
15944;SDS011;30172;48.832;8.732;2023-11-19T05:58:36;0.70;;;0.50;;
15944;SDS011;30172;48.832;8.732;2023-11-19T06:01:02;2.10;;;0.67;;
15944;SDS011;30172;48.832;8.732;2023-11-19T06:03:28;0.67;;;0.50;;
15944;SDS011;30172;48.832;8.732;2023-11-19T06:05:53;1.13;;;0.50;;
15944;SDS011;30172;48.832;8.732;2023-11-19T06:08:22;1.13;;;0.50;;
15944;SDS011;30172;48.832;8.732;2023-11-19T06:10:47;3.20;;;0.60;;
15944;SDS011;30172;48.832;8.732;2023-11-19T06:13:15;0.30;;;0.30;;
15944;SDS011;30172;48.832;8.732;2023-11-19T06:15:44;0.90;;;0.83;;
15944;SDS011;30172;48.832;8.732;2023-11-19T06:18:09;2.23;;;1.17;;
15944;SDS011;30172;48.832;8.732;2023-11-19T06:20:36;1.57;;;0.70;;
15944;SDS011;30172;48.832;8.732;2023-11-19T06:23:02;1.23;;;0.60;;
15944;SDS011;30172;48.832;8.732;2023-11-19T06:25:27;0.70;;;0.40;;
15944;SDS011;30172;48.832;8.732;2023-11-19T06:27:53;1.50;;;1.20;;
15944;SDS011;30172;48.832;8.732;2023-11-19T06:30:18;1.13;;;0.93;;
15944;SDS011;30172;48.832;8.732;2023-11-19T06:32:44;2.83;;;2.30;;
15944;SDS011;30172;48.832;8.732;2023-11-19T06:35:10;1.20;;;1.10;;
15944;SDS011;30172;48.832;8.732;2023-11-19T06:37:36;1.47;;;1.37;;
15944;SDS011;30172;48.832;8.732;2023-11-19T06:40:03;4.77;;;3.33;;
15944;SDS011;30172;48.832;8.732;2023-11-19T06:42:30;1.10;;;0.60;;
15944;SDS011;30172;48.832;8.732;2023-11-19T06:44:55;1.67;;;0.63;;
15944;SDS011;30172;48.832;8.732;2023-11-19T06:47:22;1.53;;;0.67;;
15944;SDS011;30172;48.832;8.732;2023-11-19T06:49:47;2.40;;;0.70;;
15944;SDS011;30172;48.832;8.732;2023-11-19T06:52:12;1.40;;;1.10;;
15944;SDS011;30172;48.832;8.732;2023-11-19T06:54:39;0.87;;;0.83;;
15944;SDS011;30172;48.832;8.732;2023-11-19T06:57:04;1.97;;;0.90;;
15944;SDS011;30172;48.832;8.732;2023-11-19T06:59:30;1.30;;;0.93;;
15944;SDS011;30172;48.832;8.732;2023-11-19T07:01:55;1.33;;;0.87;;
15944;SDS011;30172;48.832;8.732;2023-11-19T07:04:21;2.07;;;0.70;;
15944;SDS011;30172;48.832;8.732;2023-11-19T07:06:46;2.60;;;0.90;;
15944;SDS011;30172;48.832;8.732;2023-11-19T07:09:13;0.77;;;0.67;;
15944;SDS011;30172;48.832;8.732;2023-11-19T07:11:39;0.67;;;0.50;;
15944;SDS011;30172;48.832;8.732;2023-11-19T07:14:05;1.40;;;0.63;;
15944;SDS011;30172;48.832;8.732;2023-11-19T07:16:37;3.73;;;1.90;;
15944;SDS011;30172;48.832;8.732;2023-11-19T07:19:03;2.07;;;0.80;;
15944;SDS011;30172;48.832;8.732;2023-11-19T07:21:30;2.57;;;1.10;;
15944;SDS011;30172;48.832;8.732;2023-11-19T07:23:56;1.23;;;0.90;;
15944;SDS011;30172;48.832;8.732;2023-11-19T07:26:21;3.07;;;1.13;;
15944;SDS011;30172;48.832;8.732;2023-11-19T07:28:47;0.83;;;0.60;;
15944;SDS011;30172;48.832;8.732;2023-11-19T07:31:13;2.00;;;0.80;;
15944;SDS011;30172;48.832;8.732;2023-11-19T07:33:41;2.70;;;0.97;;
15944;SDS011;30172;48.832;8.732;2023-11-19T07:36:10;2.23;;;0.80;;
15944;SDS011;30172;48.832;8.732;2023-11-19T07:38:36;5.50;;;1.10;;
15944;SDS011;30172;48.832;8.732;2023-11-19T07:41:02;2.83;;;1.33;;
15944;SDS011;30172;48.832;8.732;2023-11-19T07:43:27;3.53;;;2.13;;
15944;SDS011;30172;48.832;8.732;2023-11-19T07:45:53;6.60;;;4.07;;
15944;SDS011;30172;48.832;8.732;2023-11-19T07:48:18;3.20;;;2.90;;
15944;SDS011;30172;48.832;8.732;2023-11-19T07:50:48;1.47;;;1.07;;
15944;SDS011;30172;48.832;8.732;2023-11-19T07:53:15;1.60;;;0.90;;
15944;SDS011;30172;48.832;8.732;2023-11-19T07:55:41;1.70;;;1.23;;
15944;SDS011;30172;48.832;8.732;2023-11-19T07:58:06;2.80;;;1.40;;
15944;SDS011;30172;48.832;8.732;2023-11-19T08:00:31;1.60;;;1.50;;
15944;SDS011;30172;48.832;8.732;2023-11-19T08:02:57;1.70;;;1.17;;
15944;SDS011;30172;48.832;8.732;2023-11-19T08:05:22;2.80;;;0.90;;
15944;SDS011;30172;48.832;8.732;2023-11-19T08:07:49;1.47;;;0.50;;
15944;SDS011;30172;48.832;8.732;2023-11-19T08:10:14;1.47;;;0.80;;
15944;SDS011;30172;48.832;8.732;2023-11-19T08:12:40;3.60;;;0.60;;
15944;SDS011;30172;48.832;8.732;2023-11-19T08:15:06;1.17;;;0.90;;
15944;SDS011;30172;48.832;8.732;2023-11-19T08:17:32;1.27;;;1.00;;
15944;SDS011;30172;48.832;8.732;2023-11-19T08:19:57;1.33;;;0.63;;
15944;SDS011;30172;48.832;8.732;2023-11-19T08:22:22;1.33;;;0.90;;
15944;SDS011;30172;48.832;8.732;2023-11-19T08:24:48;4.67;;;2.00;;
15944;SDS011;30172;48.832;8.732;2023-11-19T08:27:13;2.20;;;1.57;;
15944;SDS011;30172;48.832;8.732;2023-11-19T08:29:39;7.40;;;4.70;;
15944;SDS011;30172;48.832;8.732;2023-11-19T08:32:04;2.90;;;2.60;;
15944;SDS011;30172;48.832;8.732;2023-11-19T08:34:31;1.87;;;0.97;;
15944;SDS011;30172;48.832;8.732;2023-11-19T08:36:56;3.37;;;1.00;;
15944;SDS011;30172;48.832;8.732;2023-11-19T08:39:22;1.47;;;0.60;;
15944;SDS011;30172;48.832;8.732;2023-11-19T08:41:47;2.43;;;2.03;;
15944;SDS011;30172;48.832;8.732;2023-11-19T08:44:13;2.93;;;1.13;;
15944;SDS011;30172;48.832;8.732;2023-11-19T08:46:38;3.43;;;1.20;;
15944;SDS011;30172;48.832;8.732;2023-11-19T08:49:04;10.43;;;5.30;;
15944;SDS011;30172;48.832;8.732;2023-11-19T08:51:30;7.13;;;6.43;;
15944;SDS011;30172;48.832;8.732;2023-11-19T08:53:56;2.73;;;1.30;;
15944;SDS011;30172;48.832;8.732;2023-11-19T08:56:22;3.03;;;0.80;;
15944;SDS011;30172;48.832;8.732;2023-11-19T08:58:47;0.67;;;0.60;;
15944;SDS011;30172;48.832;8.732;2023-11-19T09:01:13;1.43;;;0.93;;
15944;SDS011;30172;48.832;8.732;2023-11-19T09:03:38;2.20;;;0.90;;
15944;SDS011;30172;48.832;8.732;2023-11-19T09:06:03;2.17;;;0.90;;
15944;SDS011;30172;48.832;8.732;2023-11-19T09:08:29;2.37;;;1.97;;
15944;SDS011;30172;48.832;8.732;2023-11-19T09:10:54;2.30;;;1.63;;
15944;SDS011;30172;48.832;8.732;2023-11-19T09:13:19;4.23;;;3.93;;
15944;SDS011;30172;48.832;8.732;2023-11-19T09:15:45;2.47;;;0.90;;
15944;SDS011;30172;48.832;8.732;2023-11-19T09:18:10;0.70;;;0.70;;
15944;SDS011;30172;48.832;8.732;2023-11-19T09:20:36;2.23;;;0.80;;
15944;SDS011;30172;48.832;8.732;2023-11-19T09:23:03;0.67;;;0.60;;
15944;SDS011;30172;48.832;8.732;2023-11-19T09:25:30;1.37;;;0.60;;
15944;SDS011;30172;48.832;8.732;2023-11-19T09:27:55;0.83;;;0.63;;
15944;SDS011;30172;48.832;8.732;2023-11-19T09:30:21;2.40;;;0.80;;
15944;SDS011;30172;48.832;8.732;2023-11-19T09:32:49;1.53;;;0.60;;
15944;SDS011;30172;48.832;8.732;2023-11-19T09:35:14;1.83;;;0.60;;
15944;SDS011;30172;48.832;8.732;2023-11-19T09:37:41;2.40;;;0.80;;
15944;SDS011;30172;48.832;8.732;2023-11-19T09:40:06;1.67;;;0.70;;
15944;SDS011;30172;48.832;8.732;2023-11-19T09:42:36;2.47;;;0.70;;
15944;SDS011;30172;48.832;8.732;2023-11-19T09:45:12;2.77;;;0.70;;
15944;SDS011;30172;48.832;8.732;2023-11-19T09:47:39;1.80;;;0.70;;
15944;SDS011;30172;48.832;8.732;2023-11-19T09:50:05;1.10;;;0.80;;
15944;SDS011;30172;48.832;8.732;2023-11-19T09:52:30;2.33;;;1.20;;
15944;SDS011;30172;48.832;8.732;2023-11-19T09:54:56;3.27;;;2.47;;
15944;SDS011;30172;48.832;8.732;2023-11-19T09:57:21;6.37;;;4.00;;
15944;SDS011;30172;48.832;8.732;2023-11-19T09:59:47;3.10;;;1.63;;
15944;SDS011;30172;48.832;8.732;2023-11-19T10:02:12;1.80;;;1.40;;
15944;SDS011;30172;48.832;8.732;2023-11-19T10:04:38;1.57;;;0.90;;
15944;SDS011;30172;48.832;8.732;2023-11-19T10:07:04;2.17;;;0.70;;
15944;SDS011;30172;48.832;8.732;2023-11-19T10:09:29;1.43;;;0.70;;
15944;SDS011;30172;48.832;8.732;2023-11-19T10:11:55;0.83;;;0.70;;
15944;SDS011;30172;48.832;8.732;2023-11-19T10:14:22;1.37;;;0.60;;
15944;SDS011;30172;48.832;8.732;2023-11-19T10:16:48;3.23;;;0.90;;
15944;SDS011;30172;48.832;8.732;2023-11-19T10:19:18;1.70;;;0.60;;
15944;SDS011;30172;48.832;8.732;2023-11-19T10:21:47;1.57;;;0.60;;
15944;SDS011;30172;48.832;8.732;2023-11-19T10:24:13;1.00;;;0.60;;
15944;SDS011;30172;48.832;8.732;2023-11-19T10:26:38;0.40;;;0.40;;
15944;SDS011;30172;48.832;8.732;2023-11-19T10:29:05;2.53;;;0.70;;
15944;SDS011;30172;48.832;8.732;2023-11-19T10:31:30;0.67;;;0.60;;
15944;SDS011;30172;48.832;8.732;2023-11-19T10:33:56;0.50;;;0.40;;
15944;SDS011;30172;48.832;8.732;2023-11-19T10:36:22;1.50;;;0.87;;
15944;SDS011;30172;48.832;8.732;2023-11-19T10:38:52;1.60;;;0.67;;
15944;SDS011;30172;48.832;8.732;2023-11-19T10:41:28;1.23;;;1.00;;
15944;SDS011;30172;48.832;8.732;2023-11-19T10:43:55;2.20;;;0.80;;
15944;SDS011;30172;48.832;8.732;2023-11-19T10:46:21;2.37;;;1.00;;
15944;SDS011;30172;48.832;8.732;2023-11-19T10:48:48;3.37;;;2.90;;
15944;SDS011;30172;48.832;8.732;2023-11-19T10:51:13;5.27;;;2.03;;
15944;SDS011;30172;48.832;8.732;2023-11-19T10:53:46;1.70;;;1.60;;
15944;SDS011;30172;48.832;8.732;2023-11-19T10:56:15;1.47;;;0.80;;
15944;SDS011;30172;48.832;8.732;2023-11-19T10:58:43;2.70;;;0.80;;
15944;SDS011;30172;48.832;8.732;2023-11-19T11:01:22;1.23;;;1.13;;
15944;SDS011;30172;48.832;8.732;2023-11-19T11:03:49;1.60;;;0.80;;
15944;SDS011;30172;48.832;8.732;2023-11-19T11:06:16;3.10;;;0.93;;
15944;SDS011;30172;48.832;8.732;2023-11-19T11:08:42;3.13;;;0.80;;
15944;SDS011;30172;48.832;8.732;2023-11-19T11:11:08;3.47;;;0.93;;
15944;SDS011;30172;48.832;8.732;2023-11-19T11:13:35;2.07;;;0.67;;
15944;SDS011;30172;48.832;8.732;2023-11-19T11:16:02;1.60;;;0.90;;
15944;SDS011;30172;48.832;8.732;2023-11-19T11:18:29;2.70;;;0.80;;
15944;SDS011;30172;48.832;8.732;2023-11-19T11:29:14;2.97;;;0.90;;
15944;SDS011;30172;48.832;8.732;2023-11-19T11:37:32;2.83;;;1.00;;
15944;SDS011;30172;48.832;8.732;2023-11-19T11:39:59;4.00;;;1.40;;
15944;SDS011;30172;48.832;8.732;2023-11-19T11:44:58;3.07;;;1.20;;
15944;SDS011;30172;48.832;8.732;2023-11-19T11:55:28;3.07;;;1.10;;
15944;SDS011;30172;48.832;8.732;2023-11-19T11:58:05;2.00;;;0.90;;
15944;SDS011;30172;48.832;8.732;2023-11-19T12:00:37;1.63;;;1.00;;
15944;SDS011;30172;48.832;8.732;2023-11-19T12:03:04;1.63;;;0.83;;
15944;SDS011;30172;48.832;8.732;2023-11-19T12:05:30;1.17;;;0.90;;
15944;SDS011;30172;48.832;8.732;2023-11-19T12:08:03;1.53;;;0.80;;
15944;SDS011;30172;48.832;8.732;2023-11-19T12:10:52;4.13;;;1.00;;
15944;SDS011;30172;48.832;8.732;2023-11-19T12:13:17;1.33;;;0.60;;
15944;SDS011;30172;48.832;8.732;2023-11-19T12:20:53;3.20;;;1.03;;
15944;SDS011;30172;48.832;8.732;2023-11-19T12:23:19;1.43;;;1.00;;
15944;SDS011;30172;48.832;8.732;2023-11-19T12:25:44;1.50;;;0.70;;
15944;SDS011;30172;48.832;8.732;2023-11-19T12:28:16;2.63;;;0.90;;
15944;SDS011;30172;48.832;8.732;2023-11-19T12:30:42;1.90;;;0.67;;
15944;SDS011;30172;48.832;8.732;2023-11-19T12:33:09;1.93;;;0.70;;
15944;SDS011;30172;48.832;8.732;2023-11-19T12:35:44;0.80;;;0.70;;
15944;SDS011;30172;48.832;8.732;2023-11-19T12:38:25;1.00;;;0.60;;
15944;SDS011;30172;48.832;8.732;2023-11-19T12:41:03;3.87;;;0.80;;
15944;SDS011;30172;48.832;8.732;2023-11-19T12:43:33;2.77;;;1.10;;
15944;SDS011;30172;48.832;8.732;2023-11-19T12:46:03;1.43;;;0.73;;
15944;SDS011;30172;48.832;8.732;2023-11-19T12:48:28;2.37;;;0.97;;
15944;SDS011;30172;48.832;8.732;2023-11-19T12:50:55;1.60;;;1.00;;
15944;SDS011;30172;48.832;8.732;2023-11-19T12:53:25;1.80;;;1.37;;
15944;SDS011;30172;48.832;8.732;2023-11-19T12:55:52;1.80;;;1.20;;
15944;SDS011;30172;48.832;8.732;2023-11-19T12:58:34;1.87;;;0.80;;
15944;SDS011;30172;48.832;8.732;2023-11-19T13:01:04;1.33;;;0.90;;
15944;SDS011;30172;48.832;8.732;2023-11-19T13:03:34;2.17;;;1.10;;
15944;SDS011;30172;48.832;8.732;2023-11-19T13:06:07;1.57;;;0.80;;
15944;SDS011;30172;48.832;8.732;2023-11-19T13:08:36;1.70;;;0.90;;
15944;SDS011;30172;48.832;8.732;2023-11-19T13:11:05;2.13;;;0.97;;
15944;SDS011;30172;48.832;8.732;2023-11-19T13:13:31;3.43;;;0.90;;
15944;SDS011;30172;48.832;8.732;2023-11-19T13:16:03;2.60;;;1.00;;
15944;SDS011;30172;48.832;8.732;2023-11-19T13:18:33;3.57;;;1.10;;
15944;SDS011;30172;48.832;8.732;2023-11-19T13:20:59;2.27;;;0.90;;
15944;SDS011;30172;48.832;8.732;2023-11-19T13:23:25;2.43;;;0.97;;
15944;SDS011;30172;48.832;8.732;2023-11-19T13:25:50;3.80;;;1.10;;
15944;SDS011;30172;48.832;8.732;2023-11-19T13:28:15;1.73;;;0.80;;
15944;SDS011;30172;48.832;8.732;2023-11-19T13:30:41;1.73;;;1.30;;
15944;SDS011;30172;48.832;8.732;2023-11-19T13:33:06;2.83;;;1.87;;
15944;SDS011;30172;48.832;8.732;2023-11-19T13:35:31;4.30;;;1.50;;
15944;SDS011;30172;48.832;8.732;2023-11-19T13:37:57;1.90;;;0.70;;
15944;SDS011;30172;48.832;8.732;2023-11-19T13:40:22;1.47;;;0.90;;
15944;SDS011;30172;48.832;8.732;2023-11-19T13:42:49;1.37;;;0.80;;
15944;SDS011;30172;48.832;8.732;2023-11-19T13:45:14;2.97;;;0.80;;
15944;SDS011;30172;48.832;8.732;2023-11-19T13:47:41;1.03;;;0.70;;
15944;SDS011;30172;48.832;8.732;2023-11-19T13:50:11;0.93;;;0.80;;
15944;SDS011;30172;48.832;8.732;2023-11-19T13:52:38;2.07;;;0.80;;
15944;SDS011;30172;48.832;8.732;2023-11-19T13:55:05;0.67;;;0.60;;
15944;SDS011;30172;48.832;8.732;2023-11-19T13:57:37;3.63;;;0.90;;
15944;SDS011;30172;48.832;8.732;2023-11-19T14:00:03;3.10;;;1.40;;
15944;SDS011;30172;48.832;8.732;2023-11-19T14:02:37;1.97;;;1.00;;
15944;SDS011;30172;48.832;8.732;2023-11-19T14:05:06;1.60;;;0.93;;
15944;SDS011;30172;48.832;8.732;2023-11-19T14:07:32;3.90;;;1.23;;
15944;SDS011;30172;48.832;8.732;2023-11-19T14:09:57;3.10;;;0.80;;
15944;SDS011;30172;48.832;8.732;2023-11-19T14:12:23;1.30;;;0.83;;
15944;SDS011;30172;48.832;8.732;2023-11-19T14:14:48;3.20;;;0.73;;
15944;SDS011;30172;48.832;8.732;2023-11-19T14:17:13;1.53;;;0.70;;
15944;SDS011;30172;48.832;8.732;2023-11-19T14:19:40;0.70;;;0.60;;
15944;SDS011;30172;48.832;8.732;2023-11-19T14:22:06;2.07;;;0.93;;
15944;SDS011;30172;48.832;8.732;2023-11-19T14:24:31;3.77;;;1.00;;
15944;SDS011;30172;48.832;8.732;2023-11-19T14:26:56;2.00;;;0.80;;
15944;SDS011;30172;48.832;8.732;2023-11-19T14:29:24;2.57;;;0.90;;
15944;SDS011;30172;48.832;8.732;2023-11-19T14:31:51;2.73;;;0.87;;
15944;SDS011;30172;48.832;8.732;2023-11-19T14:34:16;2.80;;;1.60;;
15944;SDS011;30172;48.832;8.732;2023-11-19T14:36:41;1.43;;;0.77;;
15944;SDS011;30172;48.832;8.732;2023-11-19T14:39:07;2.20;;;0.90;;
15944;SDS011;30172;48.832;8.732;2023-11-19T14:41:32;1.77;;;1.10;;
15944;SDS011;30172;48.832;8.732;2023-11-19T14:43:58;2.37;;;1.00;;
15944;SDS011;30172;48.832;8.732;2023-11-19T14:46:23;1.33;;;0.90;;
15944;SDS011;30172;48.832;8.732;2023-11-19T14:48:48;2.50;;;1.20;;
15944;SDS011;30172;48.832;8.732;2023-11-19T14:51:13;1.47;;;0.90;;
15944;SDS011;30172;48.832;8.732;2023-11-19T14:53:39;1.43;;;1.10;;
15944;SDS011;30172;48.832;8.732;2023-11-19T14:56:04;3.67;;;0.90;;
15944;SDS011;30172;48.832;8.732;2023-11-19T14:58:32;2.53;;;0.97;;
15944;SDS011;30172;48.832;8.732;2023-11-19T15:00:57;1.73;;;1.30;;
15944;SDS011;30172;48.832;8.732;2023-11-19T15:03:22;3.27;;;1.30;;
15944;SDS011;30172;48.832;8.732;2023-11-19T15:05:48;2.63;;;1.13;;
15944;SDS011;30172;48.832;8.732;2023-11-19T15:08:13;2.83;;;1.10;;
15944;SDS011;30172;48.832;8.732;2023-11-19T15:10:41;2.23;;;1.00;;
15944;SDS011;30172;48.832;8.732;2023-11-19T15:13:06;5.17;;;1.10;;
15944;SDS011;30172;48.832;8.732;2023-11-19T15:15:33;1.43;;;1.13;;